createdAt,value
2019-05-16T00:00:33.877Z,101807.91
2019-05-16T00:03:02.813Z,101807.16
2019-05-16T00:05:31.724Z,101809.98
2019-05-16T00:08:00.632Z,101804.30
2019-05-16T00:10:29.527Z,101811.34
2019-05-16T00:12:59.504Z,101803.04
2019-05-16T00:15:28.736Z,101810.45
2019-05-16T00:17:58.317Z,101809.33
2019-05-16T00:20:25.172Z,101811.70
2019-05-16T00:22:54.067Z,101802.80
2019-05-16T00:25:22.976Z,101806.62
2019-05-16T00:27:51.903Z,101795.02
2019-05-16T00:30:20.815Z,101799.46
2019-05-16T00:32:49.756Z,101793.66
2019-05-16T00:35:18.644Z,101794.27
2019-05-16T00:37:48.434Z,101791.90
2019-05-16T00:40:18.571Z,101793.14
2019-05-16T00:42:45.471Z,101786.48
2019-05-16T00:45:14.398Z,101788.81
2019-05-16T00:47:43.328Z,101785.00
2019-05-16T00:50:12.241Z,101783.16
2019-05-16T00:52:41.175Z,101779.06
2019-05-16T00:55:10.078Z,101784.48
2019-05-16T00:57:39.182Z,101782.86
2019-05-16T01:00:08.303Z,101779.66
2019-05-16T01:02:38.162Z,101779.06
2019-05-16T01:05:08.284Z,101782.03
2019-05-16T01:07:35.077Z,101777.70
2019-05-16T01:10:04.006Z,101777.17
2019-05-16T01:12:32.911Z,101777.52
2019-05-16T01:15:01.865Z,101774.31
2019-05-16T01:17:30.787Z,101776.05
2019-05-16T01:19:59.738Z,101771.45
2019-05-16T01:22:29.415Z,101770.20
2019-05-16T01:24:58.621Z,101766.63
2019-05-16T01:27:27.780Z,101771.17
2019-05-16T01:29:58.229Z,101768.74
2019-05-16T01:32:25.485Z,101770.76
2019-05-16T01:34:54.425Z,101762.73
2019-05-16T01:37:23.343Z,101769.73
2019-05-16T01:39:52.296Z,101770.68
2019-05-16T01:42:21.199Z,101762.50
2019-05-16T01:44:50.148Z,101760.38
2019-05-16T01:47:19.086Z,101756.53
2019-05-16T01:49:48.754Z,101756.47
2019-05-16T01:52:17.804Z,101753.14
2019-05-16T01:54:47.992Z,101750.66
2019-05-16T01:57:14.868Z,101751.20
2019-05-16T01:59:43.853Z,101741.94
2019-05-16T02:02:12.784Z,101743.98
2019-05-16T02:04:41.725Z,101745.13
2019-05-16T02:07:10.662Z,101742.42
2019-05-16T02:09:39.550Z,101731.59
2019-05-16T02:12:10.833Z,101737.61
2019-05-16T02:14:38.774Z,101733.73
2019-05-16T02:17:10.887Z,101739.61
2019-05-16T02:19:35.290Z,101735.34
2019-05-16T02:22:04.251Z,101729.92
2019-05-16T02:24:33.207Z,101726.08
2019-05-16T02:27:02.081Z,101722.29
2019-05-16T02:29:30.967Z,101719.63
2019-05-16T02:32:01.958Z,101719.88
2019-05-16T02:34:30.783Z,101718.68
2019-05-16T02:37:14.678Z,101712.06
2019-05-16T02:39:26.724Z,101714.77
2019-05-16T02:41:55.657Z,101715.63
2019-05-16T02:44:25.085Z,101709.73
2019-05-16T02:46:53.484Z,101708.70
2019-05-16T02:49:22.429Z,101707.45
2019-05-16T02:51:51.424Z,101702.53
2019-05-16T02:54:21.876Z,101704.64
2019-05-16T02:56:50.654Z,101703.18
2019-05-16T02:59:20.635Z,101703.67
2019-05-16T03:01:47.074Z,101696.69
2019-05-16T03:04:16.010Z,101702.15
2019-05-16T03:06:44.943Z,101698.95
2019-05-16T03:09:13.931Z,101700.58
2019-05-16T03:11:42.794Z,101698.09
2019-05-16T03:14:11.796Z,101692.38
2019-05-16T03:16:41.754Z,101690.54
2019-05-16T03:19:11.330Z,101690.14
2019-05-16T03:21:41.336Z,101693.22
2019-05-16T03:24:07.703Z,101691.89
2019-05-16T03:26:36.675Z,101690.64
2019-05-16T03:29:05.688Z,101687.84
2019-05-16T03:31:34.739Z,101691.77
2019-05-16T03:34:07.366Z,101680.19
2019-05-16T03:36:34.562Z,101686.56
2019-05-16T03:39:01.531Z,101687.05
2019-05-16T03:41:30.974Z,101686.78
2019-05-16T03:44:01.432Z,101682.48
2019-05-16T03:46:30.946Z,101685.67
2019-05-16T03:48:57.076Z,101686.47
2019-05-16T03:51:25.961Z,101689.83
2019-05-16T03:53:54.878Z,101685.39
2019-05-16T03:56:23.772Z,101685.95
2019-05-16T03:58:52.684Z,101682.55
2019-05-16T04:01:21.574Z,101683.28
2019-05-16T04:03:51.274Z,101686.95
2019-05-16T04:06:22.097Z,101685.70
2019-05-16T04:08:51.011Z,101681.86
2019-05-16T04:11:19.550Z,101673.43
2019-05-16T04:13:46.112Z,101675.47
2019-05-16T04:16:15.016Z,101674.49
2019-05-16T04:18:43.932Z,101681.94
2019-05-16T04:21:12.883Z,101677.71
2019-05-16T04:23:42.239Z,101679.26
2019-05-16T04:26:11.493Z,101678.72
2019-05-16T04:28:41.296Z,101673.39
2019-05-16T04:31:10.881Z,101676.71
2019-05-16T04:33:37.687Z,101687.23
2019-05-16T04:36:06.790Z,101671.91
2019-05-16T04:38:41.372Z,101674.25
2019-05-16T04:41:04.696Z,101678.25
2019-05-16T04:43:33.676Z,101672.95
2019-05-16T04:46:02.644Z,101677.33
2019-05-16T04:48:31.607Z,101677.22
2019-05-16T04:51:01.299Z,101676.03
2019-05-16T04:53:31.564Z,101677.28
2019-05-16T04:56:01.389Z,101675.86
2019-05-16T04:58:27.213Z,101672.89
2019-05-16T05:00:56.121Z,101674.13
2019-05-16T05:03:25.039Z,101675.41
2019-05-16T05:05:53.983Z,101673.94
2019-05-16T05:08:22.903Z,101670.73
2019-05-16T05:10:52.183Z,101677.66
2019-05-16T05:13:22.084Z,101685.94
2019-05-16T05:15:50.989Z,101677.80
2019-05-16T05:18:21.278Z,101671.66
2019-05-16T05:20:47.626Z,101672.41
2019-05-16T05:23:16.586Z,101670.67
2019-05-16T05:25:45.484Z,101669.20
2019-05-16T05:28:14.420Z,101667.48
2019-05-16T05:30:43.335Z,101663.42
2019-05-16T05:33:12.242Z,101665.02
2019-05-16T05:35:44.185Z,101661.09
2019-05-16T05:38:13.079Z,101665.63
2019-05-16T05:40:41.995Z,101660.95
2019-05-16T05:43:10.952Z,101650.56
2019-05-16T05:45:40.217Z,101643.58
2019-05-16T05:48:10.675Z,101640.66
2019-05-16T05:50:40.016Z,101642.91
2019-05-16T05:53:06.997Z,101636.19
2019-05-16T05:55:35.881Z,101642.49
2019-05-16T05:58:04.817Z,101642.66
2019-05-16T06:00:33.720Z,101640.92
2019-05-16T06:03:02.732Z,101635.02
2019-05-16T06:05:31.617Z,101638.36
2019-05-16T06:08:00.492Z,101641.31
2019-05-16T06:10:30.403Z,101649.61
2019-05-16T06:13:00.501Z,101644.50
2019-05-16T06:15:27.303Z,101646.60
2019-05-16T06:17:56.239Z,101640.80
2019-05-16T06:20:25.130Z,101637.55
2019-05-16T06:22:54.132Z,101627.20
2019-05-16T06:25:23.459Z,101624.77
2019-05-16T06:27:52.024Z,101628.98
2019-05-16T06:30:21.549Z,101630.03
2019-05-16T06:32:50.228Z,101630.38
2019-05-16T06:35:20.570Z,101629.41
2019-05-16T06:37:49.798Z,101622.61
2019-05-16T06:40:16.566Z,101623.37
2019-05-16T06:42:45.527Z,101621.22
2019-05-16T06:45:14.479Z,101609.33
2019-05-16T06:47:43.398Z,101625.48
2019-05-16T06:50:12.354Z,101620.59
2019-05-16T06:52:41.351Z,101614.10
2019-05-16T06:55:10.415Z,101606.84
2019-05-16T06:57:40.937Z,101609.28
2019-05-16T07:00:10.675Z,101611.36
2019-05-16T07:02:37.176Z,101611.50
2019-05-16T07:05:06.348Z,101615.47
2019-05-16T07:07:35.284Z,101605.72
2019-05-16T07:10:04.804Z,101612.84
2019-05-16T07:12:34.133Z,101606.18
2019-05-16T07:15:02.456Z,101607.05
2019-05-16T07:17:31.398Z,101603.39
2019-05-16T07:20:06.314Z,101597.44
2019-05-16T07:22:57.637Z,101603.31
2019-05-16T07:25:33.361Z,101602.78
2019-05-16T07:28:11.164Z,101594.61
2019-05-16T07:30:43.265Z,101594.33
2019-05-16T07:33:17.287Z,101590.69
2019-05-16T07:36:06.869Z,101599.75
2019-05-16T07:38:54.103Z,101586.52
2019-05-16T07:41:23.470Z,101588.55
2019-05-16T07:44:01.182Z,101581.53
2019-05-16T07:46:44.617Z,101573.55
2019-05-16T07:49:59.568Z,101571.40
2019-05-16T07:52:20.929Z,101572.77
2019-05-16T07:54:57.034Z,101567.47
2019-05-16T08:01:08.066Z,101562.16
2019-05-16T08:03:45.327Z,101554.59
2019-05-16T08:06:17.117Z,101556.93
2019-05-16T08:12:10.543Z,101555.68
2019-05-16T08:14:51.930Z,101550.53
2019-05-16T08:17:51.382Z,101552.77
2019-05-16T08:20:21.086Z,101544.48
2019-05-16T08:23:00.939Z,101549.23
2019-05-16T08:25:31.404Z,101543.21
2019-05-16T08:28:06.063Z,101537.61
2019-05-16T08:31:05.746Z,101535.71
2019-05-16T08:33:44.355Z,101521.16
2019-05-16T08:36:20.936Z,101525.09
2019-05-16T08:38:51.212Z,101518.23
2019-05-16T08:41:26.787Z,101520.09
2019-05-16T08:44:07.415Z,101515.33
2019-05-16T08:46:42.314Z,101513.77
2019-05-16T08:49:26.223Z,101508.63
2019-05-16T08:52:01.598Z,101501.49
2019-05-16T08:54:31.842Z,101499.64
2019-05-16T08:57:27.777Z,101498.29
2019-05-16T09:00:01.443Z,101496.62
2019-05-16T09:02:42.237Z,101487.98
2019-05-16T09:05:22.310Z,101488.44
2019-05-16T09:08:01.452Z,101481.84
2019-05-16T09:11:01.808Z,101490.02
2019-05-16T09:13:36.835Z,101485.69
2019-05-16T09:16:11.253Z,101483.70
2019-05-16T09:18:41.177Z,101482.75
2019-05-16T09:21:18.274Z,101484.91
2019-05-16T09:23:51.933Z,101486.09
2019-05-16T09:26:21.222Z,101483.95
2019-05-16T09:28:57.003Z,101483.10
2019-05-16T09:31:27.671Z,101486.00
2019-05-16T09:33:58.374Z,101473.59
2019-05-16T09:36:28.167Z,101474.63
2019-05-16T09:39:01.607Z,101474.98
2019-05-16T09:41:46.305Z,101457.13
2019-05-16T09:44:02.559Z,101454.77
2019-05-16T09:46:33.814Z,101454.75
2019-05-16T09:49:16.813Z,101463.42
2019-05-16T09:51:37.794Z,101457.22
2019-05-16T09:54:24.382Z,101444.08
2019-05-16T09:57:10.088Z,101437.73
2019-05-16T09:59:46.772Z,101444.81
2019-05-16T10:02:18.285Z,101433.83
2019-05-16T10:04:49.379Z,101430.79
2019-05-16T10:07:21.168Z,101417.55
2019-05-16T10:09:52.980Z,101413.98
2019-05-16T10:12:26.196Z,101405.50
2019-05-16T10:14:53.263Z,101408.19
2019-05-16T10:17:23.546Z,101400.44
2019-05-16T10:20:02.882Z,101411.38
2019-05-16T10:22:42.987Z,101409.00
2019-05-16T10:25:19.570Z,101402.59
2019-05-16T10:28:02.240Z,101409.84
2019-05-16T10:30:31.671Z,101402.20
2019-05-16T10:33:01.163Z,101403.59
2019-05-16T10:35:30.381Z,101401.81
2019-05-16T10:38:01.836Z,101387.36
2019-05-16T10:40:33.414Z,101391.27
2019-05-16T10:43:02.485Z,101396.06
2019-05-16T10:45:36.921Z,101395.21
2019-05-16T10:48:12.587Z,101398.38
2019-05-16T10:50:47.062Z,101393.20
2019-05-16T10:53:50.327Z,101397.30
2019-05-16T10:55:48.581Z,101396.61
2019-05-16T10:58:35.575Z,101385.39
2019-05-16T11:01:19.419Z,101387.77
2019-05-16T11:03:19.865Z,101389.56
2019-05-16T11:06:05.528Z,101384.51
2019-05-16T11:08:28.440Z,101381.02
2019-05-16T11:11:02.731Z,101365.30
2019-05-16T11:13:36.942Z,101370.56
2019-05-16T11:16:11.247Z,101352.80
2019-05-16T11:18:42.771Z,101352.88
2019-05-16T11:21:13.251Z,101352.66
2019-05-16T11:23:51.075Z,101344.88
2019-05-16T11:26:31.196Z,101338.72
2019-05-16T11:31:40.682Z,101335.37
2019-05-16T11:34:31.693Z,101324.04
2019-05-16T11:37:02.047Z,101325.19
2019-05-16T11:39:32.776Z,101325.07
2019-05-16T11:42:08.108Z,101312.97
2019-05-16T11:44:38.047Z,101311.02
2019-05-16T11:47:16.483Z,101315.20
2019-05-16T11:49:43.385Z,101317.77
2019-05-16T11:52:17.822Z,101306.77
2019-05-16T11:54:46.769Z,101311.70
2019-05-16T11:57:17.893Z,101304.76
2019-05-16T11:59:52.296Z,101303.45
2019-05-16T12:02:23.450Z,101295.81
2019-05-16T12:04:57.754Z,101296.97
2019-05-16T12:07:32.240Z,101289.23
2019-05-16T12:10:09.496Z,101277.83
2019-05-16T12:12:40.224Z,101276.98
2019-05-16T12:15:11.894Z,101265.25
2019-05-16T12:17:42.610Z,101269.62
2019-05-16T12:20:21.918Z,101266.48
2019-05-16T12:22:53.461Z,101277.03
2019-05-16T12:25:31.311Z,101262.78
2019-05-16T12:28:08.340Z,101266.13
2019-05-16T12:30:40.709Z,101254.66
2019-05-16T12:33:19.140Z,101255.55
2019-05-16T12:35:49.207Z,101253.87
2019-05-16T12:38:18.113Z,101249.40
2019-05-16T12:40:47.996Z,101243.52
2019-05-16T12:43:19.877Z,101235.56
2019-05-16T12:45:56.954Z,101233.91
2019-05-16T12:48:26.165Z,101227.53
2019-05-16T12:50:58.948Z,101220.88
2019-05-16T12:53:31.696Z,101221.16
2019-05-16T12:56:03.572Z,101213.06
2019-05-16T12:58:42.026Z,101212.27
2019-05-16T13:01:07.895Z,101217.72
2019-05-16T13:03:40.074Z,101217.69
2019-05-16T13:06:09.290Z,101211.89
2019-05-16T13:08:38.381Z,101210.64
2019-05-16T13:11:10.370Z,101213.86
2019-05-16T13:13:57.373Z,101204.73
2019-05-16T13:16:11.112Z,101203.25
2019-05-16T13:18:47.509Z,101199.25
2019-05-16T13:21:34.117Z,101198.95
2019-05-16T13:24:10.666Z,101190.77
2019-05-16T13:26:43.221Z,101182.03
2019-05-16T13:29:12.936Z,101173.64
2019-05-16T13:31:42.049Z,101176.83
2019-05-16T13:34:11.189Z,101170.73
2019-05-16T13:36:40.504Z,101168.52
2019-05-16T13:39:17.006Z,101158.36
2019-05-16T13:41:53.887Z,101163.77
2019-05-16T13:44:23.661Z,101160.36
2019-05-16T13:46:52.934Z,101149.59
2019-05-16T13:49:22.073Z,101153.72
2019-05-16T13:51:51.186Z,101147.62
2019-05-16T13:54:26.977Z,101144.32
2019-05-16T13:57:03.462Z,101145.72
2019-05-16T13:59:32.474Z,101145.30
2019-05-16T14:05:12.070Z,101141.20
2019-05-16T14:07:48.018Z,101141.39
2019-05-16T14:10:29.659Z,101134.77
2019-05-16T14:12:50.353Z,101131.58
2019-05-16T14:15:31.406Z,101135.13
2019-05-16T14:17:51.107Z,101131.44
2019-05-16T14:20:21.016Z,101125.55
2019-05-16T14:22:57.321Z,101115.63
2019-05-16T14:25:33.855Z,101121.47
2019-05-16T14:28:07.714Z,101110.22
2019-05-16T14:30:57.370Z,101107.98
2019-05-16T14:33:30.765Z,101106.27
2019-05-16T14:36:02.300Z,101110.64
2019-05-16T14:38:41.691Z,101104.61
2019-05-16T14:41:37.216Z,101100.67
2019-05-16T14:44:08.572Z,101101.31
2019-05-16T14:46:48.298Z,101092.28
2019-05-16T14:49:22.032Z,101092.48
2019-05-16T14:52:09.429Z,101094.59
2019-05-16T14:54:40.444Z,101094.59
2019-05-16T14:57:16.712Z,101090.16
2019-05-16T14:59:47.338Z,101081.78
2019-05-16T15:02:18.042Z,101087.20
2019-05-16T15:04:49.616Z,101084.30
2019-05-16T15:07:22.288Z,101078.51
2019-05-16T15:09:56.619Z,101077.87
2019-05-16T15:12:26.636Z,101079.65
2019-05-16T15:17:59.782Z,101076.95
2019-05-16T15:20:30.074Z,101073.05
2019-05-16T15:22:59.918Z,101069.27
2019-05-16T15:25:30.669Z,101069.58
2019-05-16T15:28:07.318Z,101069.36
2019-05-16T15:30:39.376Z,101056.47
2019-05-16T15:33:08.458Z,101062.53
2019-05-16T15:35:37.933Z,101051.77
2019-05-16T15:38:08.142Z,101053.88
2019-05-16T15:40:48.152Z,101046.48
2019-05-16T15:43:17.683Z,101038.06
2019-05-16T15:45:53.759Z,101034.38
2019-05-16T15:48:22.909Z,101028.01
2019-05-16T15:50:51.752Z,101027.30
2019-05-16T15:53:20.633Z,101027.68
2019-05-16T15:55:49.575Z,101019.77
2019-05-16T15:58:18.754Z,101027.53
2019-05-16T16:00:48.489Z,101024.52
2019-05-16T16:03:17.627Z,101016.77
2019-05-16T16:05:45.372Z,101019.77
2019-05-16T16:08:14.278Z,101018.78
2019-05-16T16:10:43.207Z,101014.69
2019-05-16T16:13:12.082Z,101015.64
2019-05-16T16:15:50.387Z,101016.08
2019-05-16T16:18:10.022Z,101006.69
2019-05-16T16:20:38.899Z,100998.65
2019-05-16T16:23:07.839Z,101001.35
2019-05-16T16:25:36.719Z,101001.78
2019-05-16T16:28:07.374Z,100991.70
2019-05-16T16:30:37.394Z,100983.69
2019-05-16T16:33:19.031Z,100970.84
2019-05-16T16:35:32.970Z,100971.63
2019-05-16T16:38:01.922Z,100982.86
2019-05-16T16:40:30.840Z,100975.84
2019-05-16T16:42:59.762Z,100971.86
2019-05-16T16:45:28.660Z,100972.63
2019-05-16T16:47:57.651Z,100979.80
2019-05-16T16:50:26.678Z,100972.78
2019-05-16T16:52:56.566Z,100969.50
2019-05-16T16:55:24.319Z,100966.84
2019-05-16T16:57:56.013Z,100970.64
2019-05-16T17:00:22.165Z,100966.70
2019-05-16T17:03:02.224Z,100970.55
2019-05-16T17:05:19.987Z,100964.04
2019-05-16T17:07:48.898Z,100961.36
2019-05-16T17:10:17.853Z,100962.80
2019-05-16T17:12:47.336Z,100955.19
2019-05-16T17:15:17.074Z,100964.81
2019-05-16T17:17:46.663Z,100964.83
2019-05-16T17:20:13.604Z,100947.24
2019-05-16T17:22:42.455Z,100955.80
2019-05-16T17:25:11.439Z,100953.45
2019-05-16T17:27:40.327Z,100948.67
2019-05-16T17:30:16.644Z,100942.50
2019-05-16T17:32:43.164Z,100950.17
2019-05-16T17:35:12.098Z,100944.01
2019-05-16T17:37:40.981Z,100941.83
2019-05-16T17:40:10.112Z,100939.44
2019-05-16T17:42:39.072Z,100941.87
2019-05-16T17:45:08.186Z,100943.13
2019-05-16T17:47:37.219Z,100946.78
2019-05-16T17:50:07.497Z,100955.02
2019-05-16T17:52:37.018Z,100947.49
2019-05-16T17:55:07.243Z,100944.27
2019-05-16T17:57:34.347Z,100943.09
2019-05-16T18:00:03.507Z,100941.58
2019-05-16T18:02:32.291Z,100937.64
2019-05-16T18:05:01.200Z,100930.33
2019-05-16T18:07:30.118Z,100925.70
2019-05-16T18:09:59.044Z,100928.25
2019-05-16T18:12:27.949Z,100926.39
2019-05-16T18:14:57.198Z,100914.95
2019-05-16T18:17:26.827Z,100925.04
2019-05-16T18:19:54.671Z,100911.64
2019-05-16T18:22:23.596Z,100916.55
2019-05-16T18:24:52.471Z,100919.99
2019-05-16T18:27:21.381Z,100921.51
2019-05-16T18:29:50.269Z,100915.85
2019-05-16T18:32:19.173Z,100914.34
2019-05-16T18:34:48.047Z,100911.26
2019-05-16T18:37:17.416Z,100914.83
2019-05-16T18:39:47.427Z,100915.48
2019-05-16T18:42:16.774Z,100914.44
2019-05-16T18:44:43.692Z,100914.38
2019-05-16T18:47:12.642Z,100910.93
2019-05-16T18:49:41.555Z,100906.84
2019-05-16T18:52:10.457Z,100905.76
2019-05-16T18:54:39.365Z,100901.00
2019-05-16T18:57:08.372Z,100899.13
2019-05-16T18:59:37.290Z,100899.83
2019-05-16T19:02:09.692Z,100895.73
2019-05-16T19:04:37.691Z,100890.92
2019-05-16T19:07:04.239Z,100887.87
2019-05-16T19:09:33.161Z,100885.66
2019-05-16T19:12:02.036Z,100885.94
2019-05-16T19:14:30.942Z,100878.97
2019-05-16T19:16:59.872Z,100879.48
2019-05-16T19:19:28.770Z,100887.66
2019-05-16T19:21:59.581Z,100880.49
2019-05-16T19:24:27.819Z,100876.56
2019-05-16T19:26:57.356Z,100873.01
2019-05-16T19:29:26.310Z,100878.49
2019-05-16T19:31:53.274Z,100876.59
2019-05-16T19:34:22.183Z,100877.26
2019-05-16T19:36:51.087Z,100878.78
2019-05-16T19:39:19.973Z,100879.95
2019-05-16T19:41:48.905Z,100885.44
2019-05-16T19:44:17.887Z,100881.50
2019-05-16T19:46:47.040Z,100878.63
2019-05-16T19:49:15.658Z,100878.47
2019-05-16T19:51:46.835Z,100877.19
2019-05-16T19:54:13.442Z,100877.78
2019-05-16T19:56:42.387Z,100878.32
2019-05-16T19:59:11.306Z,100870.34
2019-05-16T20:01:40.181Z,100877.66
2019-05-16T20:04:09.115Z,100870.72
2019-05-16T20:06:38.019Z,100868.85
2019-05-16T20:09:07.676Z,100866.28
2019-05-16T20:11:36.994Z,100864.58
2019-05-16T20:14:07.323Z,100860.06
2019-05-16T20:16:36.624Z,100865.33
2019-05-16T20:19:03.297Z,100860.22
2019-05-16T20:21:32.192Z,100861.55
2019-05-16T20:24:01.095Z,100860.57
2019-05-16T20:26:30.000Z,100850.95
2019-05-16T20:28:59.544Z,100845.55
2019-05-16T20:31:27.851Z,100848.43
2019-05-16T20:33:56.721Z,100844.03
2019-05-16T20:36:26.443Z,100840.09
2019-05-16T20:38:54.605Z,100839.94
2019-05-16T20:41:23.514Z,100836.52
2019-05-16T20:43:52.422Z,100838.70
2019-05-16T20:46:21.344Z,100837.22
2019-05-16T20:48:50.264Z,100834.48
2019-05-16T20:51:20.239Z,100837.56
2019-05-16T20:53:49.781Z,100833.95
2019-05-16T20:56:17.221Z,100825.39
2019-05-16T20:58:46.697Z,100823.87
2019-05-16T21:01:17.184Z,100817.88
2019-05-16T21:03:43.735Z,100812.94
2019-05-16T21:06:12.728Z,100811.77
2019-05-16T21:08:41.631Z,100807.33
2019-05-16T21:11:10.523Z,100804.95
2019-05-16T21:13:39.454Z,100808.84
2019-05-16T21:16:08.404Z,100804.45
2019-05-16T21:18:37.834Z,100806.47
2019-05-16T21:21:07.670Z,100797.25
2019-05-16T21:23:36.579Z,100793.52
2019-05-16T21:26:04.122Z,100791.45
2019-05-16T21:28:33.042Z,100790.56
2019-05-16T21:31:01.975Z,100784.41
2019-05-16T21:33:30.862Z,100785.62
2019-05-16T21:35:59.776Z,100788.61
2019-05-16T21:38:28.655Z,100791.33
2019-05-16T21:40:58.461Z,100784.52
2019-05-16T21:43:27.089Z,100790.13
2019-05-16T21:45:56.691Z,100785.22
2019-05-16T21:48:24.230Z,100782.81
2019-05-16T21:50:53.148Z,100783.67
2019-05-16T21:53:22.024Z,100783.52
2019-05-16T21:55:50.924Z,100779.39
2019-05-16T21:58:19.819Z,100776.66
2019-05-16T22:00:48.763Z,100780.59
2019-05-16T22:03:17.916Z,100784.64
2019-05-16T22:05:46.813Z,100782.27
2019-05-16T22:08:16.761Z,100777.52
2019-05-16T22:10:46.741Z,100774.25
2019-05-16T22:13:13.508Z,100780.40
2019-05-16T22:15:42.434Z,100772.69
2019-05-16T22:18:11.321Z,100764.08
2019-05-16T22:20:40.193Z,100766.34
2019-05-16T22:23:09.146Z,100766.03
2019-05-16T22:25:38.052Z,100764.42
2019-05-16T22:28:07.355Z,100754.90
2019-05-16T22:30:36.562Z,100757.48
2019-05-16T22:33:08.819Z,100754.91
2019-05-16T22:35:33.845Z,100751.02
2019-05-16T22:38:02.782Z,100746.58
2019-05-16T22:40:33.337Z,100744.17
2019-05-16T22:43:00.609Z,100740.24
2019-05-16T22:45:29.522Z,100739.19
2019-05-16T22:47:58.431Z,100733.94
2019-05-16T22:50:27.349Z,100739.89
2019-05-16T22:52:56.957Z,100730.82
2019-05-16T22:55:26.504Z,100729.45
2019-05-16T22:57:56.390Z,100724.61
2019-05-16T23:00:26.549Z,100723.95
2019-05-16T23:02:56.643Z,100716.75
2019-05-16T23:05:23.824Z,100710.88
2019-05-16T23:08:02.888Z,100712.44
2019-05-16T23:10:21.695Z,100709.16
2019-05-16T23:12:50.600Z,100711.02
2019-05-16T23:15:19.503Z,100708.05
2019-05-16T23:17:48.487Z,100711.97
2019-05-16T23:20:17.320Z,100707.66
2019-05-16T23:22:46.974Z,100709.38
2019-05-16T23:25:17.180Z,100709.80
2019-05-16T23:27:44.154Z,100706.53
2019-05-16T23:30:13.099Z,100702.96
2019-05-16T23:32:42.019Z,100700.08
2019-05-16T23:35:11.072Z,100701.39
2019-05-16T23:37:43.161Z,100691.33
2019-05-16T23:40:12.069Z,100700.09
2019-05-16T23:42:40.966Z,100690.31
2019-05-16T23:45:09.892Z,100680.39
2019-05-16T23:47:38.809Z,100694.34
2019-05-16T23:50:07.908Z,100694.66
2019-05-16T23:52:37.082Z,100687.55
2019-05-16T23:55:08.153Z,100686.53
2019-05-16T23:57:37.125Z,100684.77
